createdAt,value
2019-05-14T00:00:01.296Z,103673.44
2019-05-14T00:02:31.766Z,103670.82
2019-05-14T00:05:01.696Z,103665.14
2019-05-14T00:07:37.249Z,103667.37
2019-05-14T00:10:07.979Z,103665.66
2019-05-14T00:12:37.377Z,103658.23
2019-05-14T00:15:06.825Z,103655.18
2019-05-14T00:17:36.196Z,103655.22
2019-05-14T00:20:09.796Z,103652.16
2019-05-14T00:22:37.176Z,103650.89
2019-05-14T00:25:06.602Z,103653.15
2019-05-14T00:27:35.980Z,103650.17
2019-05-14T00:30:06.041Z,103651.05
2019-05-14T00:32:35.392Z,103651.92
2019-05-14T00:35:04.876Z,103649.34
2019-05-14T00:37:34.197Z,103649.81
2019-05-14T00:40:03.636Z,103646.75
2019-05-14T00:42:32.969Z,103634.14
2019-05-14T00:45:02.331Z,103639.85
2019-05-14T00:47:31.690Z,103642.51
2019-05-14T00:50:02.251Z,103639.05
2019-05-14T00:52:31.678Z,103637.38
2019-05-14T00:55:01.232Z,103637.85
2019-05-14T00:57:31.636Z,103635.73
2019-05-14T01:00:01.237Z,103633.13
2019-05-14T01:02:31.915Z,103629.63
2019-05-14T01:05:01.944Z,103633.99
2019-05-14T01:07:31.673Z,103628.77
2019-05-14T01:10:01.426Z,103624.83
2019-05-14T01:12:31.781Z,103631.38
2019-05-14T01:15:07.793Z,103630.58
2019-05-14T01:17:32.254Z,103627.12
2019-05-14T01:20:03.072Z,103624.94
2019-05-14T01:22:32.601Z,103626.25
2019-05-14T01:25:02.001Z,103626.69
2019-05-14T01:27:31.732Z,103624.94
2019-05-14T01:30:02.074Z,103624.53
2019-05-14T01:32:31.673Z,103622.83
2019-05-14T01:35:01.373Z,103619.37
2019-05-14T01:37:31.196Z,103624.20
2019-05-14T01:40:01.225Z,103625.51
2019-05-14T01:42:32.131Z,103623.39
2019-05-14T01:45:02.627Z,103624.33
2019-05-14T01:47:32.030Z,103619.56
2019-05-14T01:50:02.069Z,103617.41
2019-05-14T01:52:31.904Z,103613.56
2019-05-14T01:55:02.191Z,103611.84
2019-05-14T01:57:37.592Z,103609.69
2019-05-14T02:00:08.724Z,103605.83
2019-05-14T02:02:38.074Z,103605.89
2019-05-14T02:05:07.763Z,103596.33
2019-05-14T02:07:37.114Z,103592.41
2019-05-14T02:10:07.060Z,103586.30
2019-05-14T02:12:36.429Z,103584.16
2019-05-14T02:15:05.940Z,103578.12
2019-05-14T02:17:35.247Z,103573.79
2019-05-14T02:20:04.767Z,103568.13
2019-05-14T02:22:34.120Z,103558.13
2019-05-14T02:25:03.493Z,103553.77
2019-05-14T02:27:35.027Z,103546.83
2019-05-14T02:30:04.135Z,103542.91
2019-05-14T02:32:33.476Z,103542.04
2019-05-14T02:35:02.829Z,103530.73
2019-05-14T02:37:32.187Z,103518.60
2019-05-14T02:40:01.527Z,103512.50
2019-05-14T02:42:31.152Z,103485.15
2019-05-14T02:45:00.464Z,103493.83
2019-05-14T02:47:30.039Z,103486.92
2019-05-14T02:49:59.466Z,103470.46
2019-05-14T02:52:29.222Z,103472.67
2019-05-14T02:54:59.736Z,103460.10
2019-05-14T02:57:30.357Z,103454.88
2019-05-14T03:00:00.015Z,103444.48
2019-05-14T03:02:29.804Z,103444.48
2019-05-14T03:04:59.414Z,103437.55
2019-05-14T03:07:29.872Z,103428.89
2019-05-14T03:09:59.584Z,103433.71
2019-05-14T03:12:30.299Z,103433.71
2019-05-14T03:14:59.814Z,103428.11
2019-05-14T03:17:30.016Z,103415.98
2019-05-14T03:20:00.145Z,103426.83
2019-05-14T03:22:43.325Z,103416.42
2019-05-14T03:25:01.040Z,103416.45
2019-05-14T03:27:30.806Z,103416.45
2019-05-14T03:30:00.181Z,103418.63
2019-05-14T03:32:32.890Z,103418.68
2019-05-14T03:35:03.894Z,103408.23
2019-05-14T03:37:31.889Z,103413.02
2019-05-14T03:40:01.346Z,103413.02
2019-05-14T03:42:30.699Z,103412.61
2019-05-14T03:45:00.044Z,103408.28
2019-05-14T03:47:29.978Z,103407.01
2019-05-14T03:49:59.355Z,103407.01
2019-05-14T03:52:29.450Z,103395.73
2019-05-14T03:55:03.915Z,103401.44
2019-05-14T03:57:30.007Z,103401.44
2019-05-14T03:59:59.987Z,103399.69
2019-05-14T04:02:29.987Z,103399.25
2019-05-14T04:05:00.082Z,103394.12
2019-05-14T04:07:30.870Z,103398.49
2019-05-14T04:10:00.847Z,103401.09
2019-05-14T04:12:31.989Z,103401.09
2019-05-14T04:15:03.077Z,103407.60
2019-05-14T04:17:38.855Z,103407.60
2019-05-14T04:20:09.726Z,103391.14
2019-05-14T04:22:41.069Z,103395.50
2019-05-14T04:25:11.437Z,103395.50
2019-05-14T04:27:41.726Z,103395.98
2019-05-14T04:30:11.917Z,103395.98
2019-05-14T04:32:42.535Z,103404.70
2019-05-14T04:35:12.149Z,103404.70
2019-05-14T04:37:42.155Z,103399.94
2019-05-14T04:40:11.559Z,103404.31
2019-05-14T04:42:40.908Z,103404.31
2019-05-14T04:45:11.216Z,103405.18
2019-05-14T04:47:42.125Z,103413.01
2019-05-14T04:50:12.015Z,103403.05
2019-05-14T04:52:41.362Z,103403.05
2019-05-14T04:55:10.935Z,103406.50
2019-05-14T04:57:40.309Z,103406.09
2019-05-14T05:00:12.380Z,103406.98
2019-05-14T05:02:41.059Z,103400.08
2019-05-14T05:05:10.629Z,103400.08
2019-05-14T05:07:40.645Z,103408.75
2019-05-14T05:10:10.583Z,103401.81
2019-05-14T05:12:40.051Z,103394.44
2019-05-14T05:15:09.818Z,103405.30
2019-05-14T05:17:47.864Z,103404.84
2019-05-14T05:20:10.527Z,103409.61
2019-05-14T05:22:40.149Z,103407.00
2019-05-14T05:25:10.208Z,103407.47
2019-05-14T05:27:39.582Z,103407.47
2019-05-14T05:30:09.334Z,103403.55
2019-05-14T05:32:39.090Z,103406.20
2019-05-14T05:35:09.647Z,103406.20
2019-05-14T05:37:39.072Z,103399.67
2019-05-14T05:40:09.283Z,103404.45
2019-05-14T05:42:38.912Z,103411.44
2019-05-14T05:45:08.621Z,103411.44
2019-05-14T05:47:39.190Z,103414.45
2019-05-14T05:50:09.147Z,103417.52
2019-05-14T05:52:38.956Z,103425.77
2019-05-14T05:55:09.314Z,103420.10
2019-05-14T05:57:39.421Z,103420.10
2019-05-14T06:00:10.028Z,103427.05
2019-05-14T06:02:39.899Z,103434.41
2019-05-14T06:05:10.276Z,103437.01
2019-05-14T06:07:39.790Z,103438.72
2019-05-14T06:10:09.441Z,103438.72
2019-05-14T06:12:39.108Z,103437.45
2019-05-14T06:15:09.918Z,103443.95
2019-05-14T06:17:39.486Z,103443.95
2019-05-14T06:20:09.623Z,103434.81
2019-05-14T06:22:39.060Z,103443.47
2019-05-14T06:25:11.097Z,103443.45
2019-05-14T06:27:39.623Z,103449.08
2019-05-14T06:30:09.868Z,103453.41
2019-05-14T06:32:39.421Z,103455.12
2019-05-14T06:35:09.509Z,103455.12
2019-05-14T06:37:38.939Z,103446.84
2019-05-14T06:40:09.141Z,103446.84
2019-05-14T06:42:39.484Z,103443.77
2019-05-14T06:45:09.262Z,103440.70
2019-05-14T06:47:38.618Z,103436.73
2019-05-14T06:50:08.462Z,103435.44
2019-05-14T06:52:38.677Z,103429.36
2019-05-14T06:55:09.150Z,103429.36
2019-05-14T06:57:39.303Z,103435.78
2019-05-14T07:00:09.649Z,103435.78
2019-05-14T07:02:43.662Z,103439.67
2019-05-14T07:05:10.386Z,103440.46
2019-05-14T07:07:40.635Z,103440.46
2019-05-14T07:10:10.430Z,103435.19
2019-05-14T07:12:39.798Z,103439.48
2019-05-14T07:15:09.711Z,103428.17
2019-05-14T07:17:39.080Z,103428.17
2019-05-14T07:20:10.186Z,103430.29
2019-05-14T07:22:39.554Z,103418.85
2019-05-14T07:25:09.828Z,103418.85
2019-05-14T07:27:39.554Z,103424.48
2019-05-14T07:30:10.249Z,103424.48
2019-05-14T07:32:39.813Z,103428.75
2019-05-14T07:35:09.923Z,103428.75
2019-05-14T07:37:39.841Z,103419.54
2019-05-14T07:40:09.532Z,103419.94
2019-05-14T07:42:38.939Z,103420.75
2019-05-14T07:45:09.723Z,103393.27
2019-05-14T07:47:39.180Z,103406.23
2019-05-14T07:50:08.904Z,103412.27
2019-05-14T07:52:45.371Z,103401.23
2019-05-14T07:55:09.719Z,103401.23
2019-05-14T07:57:39.478Z,103393.31
2019-05-14T08:00:09.570Z,103385.47
2019-05-14T08:02:38.953Z,103379.68
2019-05-14T08:05:08.825Z,103384.83
2019-05-14T08:07:38.794Z,103380.88
2019-05-14T08:10:09.173Z,103387.69
2019-05-14T08:12:39.133Z,103381.02
2019-05-14T08:15:17.605Z,103385.30
2019-05-14T08:17:40.721Z,103382.15
2019-05-14T08:20:10.819Z,103379.41
2019-05-14T08:22:40.188Z,103373.64
2019-05-14T08:25:10.051Z,103368.31
2019-05-14T08:27:39.634Z,103368.22
2019-05-14T08:30:09.468Z,103372.88
2019-05-14T08:32:39.181Z,103367.03
2019-05-14T08:35:09.383Z,103356.37
2019-05-14T08:37:38.961Z,103358.83
2019-05-14T08:40:09.737Z,103352.11
2019-05-14T08:42:39.032Z,103359.77
2019-05-14T08:45:13.692Z,103354.80
2019-05-14T08:47:40.368Z,103351.56
2019-05-14T08:50:10.215Z,103343.05
2019-05-14T08:52:39.563Z,103326.32
2019-05-14T08:55:13.066Z,103326.58
2019-05-14T08:57:40.082Z,103327.70
2019-05-14T09:00:13.843Z,103318.40
2019-05-14T09:02:41.145Z,103321.71
2019-05-14T09:05:11.182Z,103320.45
2019-05-14T09:07:40.655Z,103320.45
2019-05-14T09:10:10.595Z,103321.16
2019-05-14T09:12:39.950Z,103290.50
2019-05-14T09:15:10.037Z,103301.72
2019-05-14T09:17:39.511Z,103303.64
2019-05-14T09:20:11.443Z,103296.55
2019-05-14T09:22:40.497Z,103302.05
2019-05-14T09:25:10.695Z,103300.42
2019-05-14T09:27:40.047Z,103300.42
2019-05-14T09:30:10.044Z,103299.34
2019-05-14T09:32:39.404Z,103297.87
2019-05-14T09:35:09.995Z,103297.33
2019-05-14T09:37:40.041Z,103305.41
2019-05-14T09:40:09.871Z,103301.31
2019-05-14T09:42:39.687Z,103294.97
2019-05-14T09:45:11.111Z,103293.91
2019-05-14T09:47:40.472Z,103286.76
2019-05-14T09:50:22.891Z,103282.20
2019-05-14T09:52:41.292Z,103273.28
2019-05-14T09:55:11.026Z,103275.62
2019-05-14T09:57:40.370Z,103272.34
2019-05-14T10:00:10.686Z,103260.33
2019-05-14T10:02:40.025Z,103258.39
2019-05-14T10:05:09.432Z,103260.87
2019-05-14T10:07:39.425Z,103251.95
2019-05-14T10:10:09.960Z,103256.59
2019-05-14T10:12:51.268Z,103250.27
2019-05-14T10:15:10.592Z,103244.41
2019-05-14T10:17:39.984Z,103240.27
2019-05-14T10:20:09.525Z,103240.91
2019-05-14T10:22:39.782Z,103237.22
2019-05-14T10:25:09.431Z,103235.78
2019-05-14T10:27:38.766Z,103239.53
2019-05-14T10:30:10.634Z,103228.32
2019-05-14T10:32:41.723Z,103222.05
2019-05-14T10:35:11.508Z,103220.92
2019-05-14T10:37:40.833Z,103230.31
2019-05-14T10:40:10.906Z,103225.39
2019-05-14T10:42:40.713Z,103216.42
2019-05-14T10:45:12.812Z,103224.12
2019-05-14T10:47:42.059Z,103224.81
2019-05-14T10:50:13.907Z,103222.34
2019-05-14T10:52:42.914Z,103215.09
2019-05-14T10:55:12.581Z,103202.54
2019-05-14T10:57:41.938Z,103202.32
2019-05-14T11:00:11.877Z,103199.92
2019-05-14T11:02:41.229Z,103190.92
2019-05-14T11:05:10.756Z,103199.02
2019-05-14T11:07:41.770Z,103192.02
2019-05-14T11:10:11.452Z,103189.99
2019-05-14T11:12:40.785Z,103191.16
2019-05-14T11:15:10.370Z,103189.53
2019-05-14T11:17:40.663Z,103176.52
2019-05-14T11:20:10.581Z,103167.51
2019-05-14T11:22:39.932Z,103165.05
2019-05-14T11:25:09.467Z,103159.45
2019-05-14T11:27:39.090Z,103158.84
2019-05-14T11:30:09.196Z,103146.67
2019-05-14T11:32:38.772Z,103140.00
2019-05-14T11:35:12.924Z,103151.05
2019-05-14T11:37:41.439Z,103146.72
2019-05-14T11:40:10.948Z,103141.47
2019-05-14T11:42:40.268Z,103141.63
2019-05-14T11:45:10.539Z,103145.16
2019-05-14T11:47:39.886Z,103136.06
2019-05-14T11:50:10.586Z,103144.53
2019-05-14T11:52:39.853Z,103136.45
2019-05-14T11:55:09.606Z,103143.02
2019-05-14T11:57:38.944Z,103139.52
2019-05-14T12:00:10.658Z,103140.02
2019-05-14T12:05:15.241Z,103129.78
2019-05-14T12:07:44.557Z,103131.19
2019-05-14T12:10:14.598Z,103130.10
2019-05-14T12:12:43.950Z,103135.51
2019-05-14T12:15:13.383Z,103132.08
2019-05-14T12:17:42.727Z,103130.00
2019-05-14T12:20:12.150Z,103121.89
2019-05-14T12:22:41.499Z,103125.81
2019-05-14T12:25:10.954Z,103122.00
2019-05-14T12:27:40.333Z,103119.51
2019-05-14T12:30:10.183Z,103112.18
2019-05-14T12:32:40.016Z,103109.44
2019-05-14T12:35:09.565Z,103117.25
2019-05-14T12:37:39.185Z,103109.76
2019-05-14T12:40:09.063Z,103112.86
2019-05-14T12:42:39.211Z,103109.03
2019-05-14T12:45:09.990Z,103103.22
2019-05-14T12:47:39.328Z,103102.67
2019-05-14T12:50:09.480Z,103101.42
2019-05-14T12:52:39.207Z,103096.02
2019-05-14T12:55:09.633Z,103102.98
2019-05-14T12:57:39.752Z,103090.64
2019-05-14T13:00:10.131Z,103089.96
2019-05-14T13:02:39.462Z,103090.97
2019-05-14T13:05:09.229Z,103082.66
2019-05-14T13:07:41.502Z,103080.70
2019-05-14T13:10:09.917Z,103083.59
2019-05-14T13:12:39.464Z,103073.96
2019-05-14T13:15:09.260Z,103072.86
2019-05-14T13:17:39.090Z,103079.34
2019-05-14T13:20:13.555Z,103080.70
2019-05-14T13:22:46.068Z,103079.56
2019-05-14T13:25:12.236Z,103076.16
2019-05-14T13:27:41.599Z,103080.39
2019-05-14T13:30:11.426Z,103072.62
2019-05-14T13:32:40.797Z,103062.39
2019-05-14T13:35:13.796Z,103054.81
2019-05-14T13:37:42.795Z,103055.75
2019-05-14T13:40:13.987Z,103054.78
2019-05-14T13:42:44.702Z,103054.99
2019-05-14T13:45:14.900Z,103054.42
2019-05-14T13:47:44.230Z,103049.48
2019-05-14T13:50:13.907Z,103049.87
2019-05-14T13:52:58.406Z,103050.45
2019-05-14T13:55:14.466Z,103046.16
2019-05-14T13:57:43.848Z,103034.47
2019-05-14T14:00:13.760Z,103037.41
2019-05-14T14:02:43.116Z,103032.17
2019-05-14T14:05:12.848Z,103033.59
2019-05-14T14:07:44.846Z,103031.39
2019-05-14T14:10:13.498Z,103023.77
2019-05-14T14:12:42.839Z,103022.59
2019-05-14T14:15:12.720Z,103016.02
2019-05-14T14:17:42.073Z,103012.87
2019-05-14T14:20:11.391Z,103010.03
2019-05-14T14:22:40.725Z,103004.35
2019-05-14T14:25:10.276Z,103005.64
2019-05-14T14:27:40.950Z,102999.58
2019-05-14T14:30:11.565Z,103010.50
2019-05-14T14:32:41.128Z,103002.25
2019-05-14T14:35:10.847Z,103001.70
2019-05-14T14:37:40.308Z,102997.52
2019-05-14T14:40:11.042Z,102999.58
2019-05-14T14:42:40.863Z,102995.58
2019-05-14T14:45:10.800Z,102995.66
2019-05-14T14:47:40.173Z,102991.86
2019-05-14T14:50:09.712Z,102991.34
2019-05-14T14:52:39.159Z,102993.95
2019-05-14T14:55:08.866Z,102994.22
2019-05-14T14:57:45.091Z,102991.78
2019-05-14T15:00:11.197Z,102994.39
2019-05-14T15:02:41.512Z,102979.92
2019-05-14T15:05:14.213Z,102974.25
2019-05-14T15:07:42.272Z,102976.45
2019-05-14T15:10:11.918Z,102971.45
2019-05-14T15:12:41.794Z,102973.55
2019-05-14T15:15:11.374Z,102966.51
2019-05-14T15:17:40.735Z,102961.55
2019-05-14T15:20:10.923Z,102973.30
2019-05-14T15:22:40.421Z,102970.41
2019-05-14T15:25:09.866Z,102967.54
2019-05-14T15:27:39.203Z,102962.72
2019-05-14T15:30:08.977Z,102960.92
2019-05-14T15:32:38.313Z,102958.07
2019-05-14T15:35:10.705Z,102954.40
2019-05-14T15:37:42.742Z,102962.69
2019-05-14T15:40:11.106Z,102955.58
2019-05-14T15:42:40.476Z,102945.52
2019-05-14T15:45:10.215Z,102941.80
2019-05-14T15:47:39.514Z,102942.61
2019-05-14T15:50:09.587Z,102938.91
2019-05-14T15:52:39.790Z,102936.76
2019-05-14T15:55:09.617Z,102928.77
2019-05-14T15:57:39.898Z,102926.72
2019-05-14T16:00:10.164Z,102926.87
2019-05-14T16:02:40.045Z,102926.89
2019-05-14T16:05:10.496Z,102926.80
2019-05-14T16:07:39.985Z,102918.08
2019-05-14T16:10:10.550Z,102918.94
2019-05-14T16:12:40.314Z,102913.60
2019-05-14T16:15:10.219Z,102914.08
2019-05-14T16:17:48.731Z,102904.83
2019-05-14T16:20:11.738Z,102911.47
2019-05-14T16:22:41.088Z,102896.66
2019-05-14T16:25:11.220Z,102901.92
2019-05-14T16:27:40.604Z,102895.47
2019-05-14T16:30:10.568Z,102896.97
2019-05-14T16:32:40.061Z,102894.65
2019-05-14T16:35:09.783Z,102885.67
2019-05-14T16:37:39.527Z,102880.23
2019-05-14T16:40:09.176Z,102876.42
2019-05-14T16:42:39.739Z,102873.59
2019-05-14T16:45:09.856Z,102872.74
2019-05-14T16:47:40.036Z,102874.55
2019-05-14T16:50:10.135Z,102868.96
2019-05-14T16:52:42.201Z,102867.21
2019-05-14T16:55:22.447Z,102863.65
2019-05-14T16:57:41.933Z,102859.11
2019-05-14T17:00:11.881Z,102858.91
2019-05-14T17:02:41.213Z,102851.42
2019-05-14T17:05:10.954Z,102847.00
2019-05-14T17:07:40.326Z,102842.48
2019-05-14T17:10:09.846Z,102846.22
2019-05-14T17:12:52.641Z,102842.36
2019-05-14T17:15:10.651Z,102838.73
2019-05-14T17:17:40.032Z,102837.14
2019-05-14T17:20:09.807Z,102834.41
2019-05-14T17:22:40.012Z,102835.88
2019-05-14T17:25:09.939Z,102829.09
2019-05-14T17:27:39.734Z,102824.98
2019-05-14T17:30:09.585Z,102829.70
2019-05-14T17:32:39.464Z,102818.62
2019-05-14T17:35:10.686Z,102820.60
2019-05-14T17:37:40.225Z,102813.37
2019-05-14T17:40:09.735Z,102812.91
2019-05-14T17:42:39.716Z,102810.98
2019-05-14T17:45:10.790Z,102816.16
2019-05-14T17:47:40.160Z,102811.91
2019-05-14T17:50:10.088Z,102805.84
2019-05-14T17:52:43.812Z,102804.52
2019-05-14T17:55:12.074Z,102806.55
2019-05-14T17:57:47.806Z,102809.70
2019-05-14T18:00:13.405Z,102804.71
2019-05-14T18:02:42.734Z,102807.72
2019-05-14T18:05:12.200Z,102800.72
2019-05-14T18:07:41.590Z,102803.34
2019-05-14T18:10:11.253Z,102796.08
2019-05-14T18:12:40.586Z,102795.34
2019-05-14T18:15:10.904Z,102794.27
2019-05-14T18:17:40.255Z,102792.63
2019-05-14T18:20:09.922Z,102790.20
2019-05-14T18:22:42.327Z,102785.52
2019-05-14T18:25:10.766Z,102786.37
2019-05-14T18:27:40.115Z,102798.74
2019-05-14T18:30:09.694Z,102788.52
2019-05-14T18:32:39.048Z,102790.66
2019-05-14T18:35:08.511Z,102789.36
2019-05-14T18:37:38.845Z,102787.63
2019-05-14T18:40:09.267Z,102798.19
2019-05-14T18:42:39.245Z,102790.84
2019-05-14T18:45:09.428Z,102787.11
2019-05-14T18:47:39.891Z,102788.79
2019-05-14T18:50:09.877Z,102787.86
2019-05-14T18:52:40.101Z,102786.81
2019-05-14T18:55:09.780Z,102789.59
2019-05-14T18:57:39.126Z,102789.39
2019-05-14T19:00:10.186Z,102788.42
2019-05-14T19:02:39.513Z,102784.95
2019-05-14T19:05:09.037Z,102787.53
2019-05-14T19:07:39.514Z,102783.83
2019-05-14T19:10:09.537Z,102784.92
2019-05-14T19:12:39.131Z,102791.69
2019-05-14T19:15:09.702Z,102782.53
2019-05-14T19:17:39.057Z,102780.36
2019-05-14T19:20:08.648Z,102783.25
2019-05-14T19:22:39.525Z,102783.11
2019-05-14T19:25:09.319Z,102783.36
2019-05-14T19:27:38.704Z,102781.40
2019-05-14T19:30:08.644Z,102784.59
2019-05-14T19:32:39.248Z,102782.44
2019-05-14T19:35:08.963Z,102783.78
2019-05-14T19:37:39.092Z,102782.92
2019-05-14T19:40:09.360Z,102786.89
2019-05-14T19:42:39.222Z,102788.56
2019-05-14T19:45:09.934Z,102795.02
2019-05-14T19:47:40.103Z,102791.78
2019-05-14T19:50:10.767Z,102793.37
2019-05-14T19:52:40.091Z,102795.71
2019-05-14T19:55:09.671Z,102800.69
2019-05-14T19:57:39.035Z,102806.46
2019-05-14T20:00:09.253Z,102810.78
2019-05-14T20:02:38.601Z,102820.42
2019-05-14T20:05:09.068Z,102825.44
2019-05-14T20:07:39.198Z,102830.84
2019-05-14T20:10:09.019Z,102833.14
2019-05-14T20:12:39.148Z,102838.47
2019-05-14T20:15:09.658Z,102850.41
2019-05-14T20:17:39.473Z,102850.27
2019-05-14T20:20:09.405Z,102854.91
2019-05-14T20:22:39.524Z,102855.19
2019-05-14T20:25:09.930Z,102857.91
2019-05-14T20:27:39.460Z,102861.23
2019-05-14T20:30:09.330Z,102858.14
2019-05-14T20:32:38.685Z,102861.91
2019-05-14T20:35:08.902Z,102860.48
2019-05-14T20:37:39.095Z,102862.58
2019-05-14T20:40:09.516Z,102859.02
2019-05-14T20:42:39.504Z,102866.80
2019-05-14T20:45:09.462Z,102861.47
2019-05-14T20:47:39.296Z,102861.48
2019-05-14T20:50:09.310Z,102851.73
2019-05-14T20:52:38.612Z,102852.84
2019-05-14T20:55:09.595Z,102852.11
2019-05-14T20:57:39.038Z,102848.36
2019-05-14T21:00:12.124Z,102847.22
2019-05-14T21:02:41.483Z,102847.09
2019-05-14T21:05:14.327Z,102840.75
2019-05-14T21:07:42.386Z,102840.95
2019-05-14T21:10:11.888Z,102841.95
2019-05-14T21:12:41.310Z,102842.56
2019-05-14T21:15:11.134Z,102828.36
2019-05-14T21:17:40.561Z,102830.67
2019-05-14T21:20:10.268Z,102831.73
2019-05-14T21:22:40.341Z,102831.86
2019-05-14T21:25:12.560Z,102834.16
2019-05-14T21:27:48.412Z,102833.81
2019-05-14T21:30:12.319Z,102839.32
2019-05-14T21:32:42.686Z,102834.17
2019-05-14T21:35:12.263Z,102840.01
2019-05-14T21:37:41.655Z,102833.09
2019-05-14T21:40:11.316Z,102833.63
2019-05-14T21:42:40.702Z,102825.44
2019-05-14T21:45:10.667Z,102822.13
2019-05-14T21:47:42.379Z,102825.52
2019-05-14T21:50:12.684Z,102819.14
2019-05-14T21:52:42.494Z,102818.80
2019-05-14T21:55:11.919Z,102820.64
2019-05-14T21:57:53.310Z,102824.30
2019-05-14T22:00:19.531Z,102826.70
2019-05-14T22:02:49.286Z,102827.33
2019-05-14T22:05:19.089Z,102834.47
2019-05-14T22:07:48.679Z,102842.43
2019-05-14T22:10:19.150Z,102840.02
2019-05-14T22:12:48.915Z,102840.09
2019-05-14T22:15:18.612Z,102842.31
2019-05-14T22:17:49.259Z,102837.95
2019-05-14T22:20:19.414Z,102842.00
2019-05-14T22:22:48.760Z,102847.27
2019-05-14T22:25:19.024Z,102845.50
2019-05-14T22:27:48.588Z,102839.45
2019-05-14T22:30:18.954Z,102839.63
2019-05-14T22:32:48.364Z,102837.91
2019-05-14T22:35:18.698Z,102840.37
2019-05-14T22:37:48.379Z,102842.27
2019-05-14T22:40:18.594Z,102839.34
2019-05-14T22:42:47.941Z,102836.44
2019-05-14T22:45:18.553Z,102837.52
2019-05-14T22:47:49.039Z,102839.77
2019-05-14T22:50:18.492Z,102842.01
2019-05-14T22:52:48.694Z,102842.11
2019-05-14T22:55:18.057Z,102835.62
2019-05-14T22:57:48.344Z,102833.92
2019-05-14T23:00:20.617Z,102838.38
2019-05-14T23:02:48.985Z,102837.59
2019-05-14T23:05:19.279Z,102835.86
2019-05-14T23:07:48.763Z,102833.30
2019-05-14T23:10:18.433Z,102834.27
2019-05-14T23:12:48.848Z,102834.81
2019-05-14T23:15:18.427Z,102837.52
2019-05-14T23:17:49.799Z,102840.59
2019-05-14T23:20:19.709Z,102840.63
2019-05-14T23:22:49.386Z,102840.80
2019-05-14T23:25:18.788Z,102844.45
2019-05-14T23:27:48.448Z,102840.13
2019-05-14T23:30:22.360Z,102838.95
2019-05-14T23:32:51.689Z,102837.22
2019-05-14T23:35:21.038Z,102843.85
2019-05-14T23:37:50.420Z,102843.85
2019-05-14T23:40:19.737Z,102837.84
2019-05-14T23:42:49.168Z,102846.70
2019-05-14T23:45:19.115Z,102847.28
2019-05-14T23:47:49.332Z,102844.70
2019-05-14T23:50:18.845Z,102843.38
2019-05-14T23:52:49.297Z,102844.25
2019-05-14T23:55:18.837Z,102846.80
2019-05-14T23:57:48.291Z,102845.11
